Terminal Aerodrome Forecast
Issued by NWS Twin Cities, MN

Home | Current Version | Previous Version | Graphics & Text | Print | Product List | Glossary On
Versions: 1 2 3 4 5 6 7 8 9 10 11 12
000
FTUS43 KMPX 032323
TAFEAU
TAF
KEAU 032323Z 0400/0424 33010G17KT P6SM VCTS SCT060CB
     FM040100 35007KT P6SM SKC
     FM041600 35015G21KT P6SM SKC=

USA.gov is the U.S. government's official web portal to all federal, state and local government web resources and services.